Time;durP1;ratioP1;P1;durP2;ratioP2;P2;SDS_P1;SDS_P2;PMS_P1;PMS_P2;Temp;Humidity;BMP_temperature;BMP_pressure;BME280_temperature;BME280_humidity;BME280_pressure;Samples;Min_cycle;Max_cycle;Signal;HPM_P1;HPM_P2
2022/10/06 00:00:53;;;;;;;9.70;4.45;;;;;;;9.16;76.23;100690.70;2082183;84;21106;-80
2022/10/06 00:03:54;;;;;;;7.72;4.85;;;;;;;9.02;76.19;100662.04;2082260;85;21039;-79
2022/10/06 00:06:55;;;;;;;11.73;5.70;;;;;;;9.13;76.69;100679.08;2077339;85;21048;-77
2022/10/06 00:09:56;;;;;;;9.80;5.15;;;;;;;9.15;77.04;100681.56;2075355;85;21096;-79
2022/10/06 00:12:58;;;;;;;11.28;5.30;;;;;;;9.19;77.73;100693.06;2074713;85;21109;-80
2022/10/06 00:16:00;;;;;;;11.12;5.60;;;;;;;9.25;77.75;100688.17;2088635;85;21622;-79
2022/10/06 00:19:02;;;;;;;8.43;5.35;;;;;;;9.28;77.80;100694.50;2081946;85;21006;-79
2022/10/06 00:22:03;;;;;;;12.43;5.25;;;;;;;9.29;77.66;100689.54;2086134;85;21041;-81
2022/10/06 00:25:05;;;;;;;11.18;5.10;;;;;;;9.32;77.97;100692.75;2082581;85;20998;-80
2022/10/06 00:28:06;;;;;;;12.13;7.15;;;;;;;9.35;78.27;100697.77;2083472;85;21042;-80
2022/10/06 00:31:07;;;;;;;10.70;5.95;;;;;;;9.38;78.23;100693.50;2081289;85;21196;-80
2022/10/06 00:34:09;;;;;;;7.33;4.80;;;;;;;9.39;77.99;100696.48;2085173;85;21520;-80
2022/10/06 00:37:10;;;;;;;10.78;4.62;;;;;;;9.39;77.91;100692.50;2079861;85;21085;-77
2022/10/06 00:40:11;;;;;;;11.08;5.50;;;;;;;9.40;77.82;100686.71;2082448;85;21502;-78
2022/10/06 00:43:51;;;;;;;10.48;5.53;;;;;;;9.39;77.63;100689.86;2086355;84;21040;-80
2022/10/06 00:46:53;;;;;;;14.87;5.97;;;;;;;9.37;77.94;100690.98;2079696;85;21085;-79
2022/10/06 00:49:55;;;;;;;13.22;6.15;;;;;;;9.36;78.04;100690.15;2081464;85;21130;-79
2022/10/06 00:52:56;;;;;;;13.30;5.92;;;;;;;9.38;78.04;100682.91;2086301;85;20995;-78
2022/10/06 00:55:57;;;;;;;8.93;4.87;;;;;;;9.40;78.22;100687.57;2079492;85;21085;-79
2022/10/06 00:58:58;;;;;;;10.38;5.08;;;;;;;9.42;78.21;100694.86;2080056;85;20995;-79
2022/10/06 01:02:07;;;;;;;16.42;9.90;;;;;;;9.42;78.04;100697.51;2078500;85;22487;-79
2022/10/06 01:05:13;;;;;;;14.63;7.78;;;;;;;9.45;78.58;100690.26;2081810;85;21899;-79
2022/10/06 01:08:15;;;;;;;13.35;5.92;;;;;;;9.47;78.84;100697.09;2083048;84;21523;-79
2022/10/06 01:11:16;;;;;;;11.38;5.35;;;;;;;9.48;78.88;100698.74;2078853;85;21133;-78
2022/10/06 01:14:19;;;;;;;9.40;5.65;;;;;;;9.51;79.16;100700.27;2084358;85;21003;-79
2022/10/06 01:17:28;;;;;;;12.43;5.35;;;;;;;9.52;79.03;100696.66;2075751;84;21054;-80
2022/10/06 01:20:29;;;;;;;9.53;4.85;;;;;;;9.51;79.17;100697.63;2078252;85;21485;-79
2022/10/06 01:23:32;;;;;;;11.63;5.60;;;;;;;9.49;79.30;100697.78;2082891;85;21085;-79
2022/10/06 01:26:38;;;;;;;10.80;5.42;;;;;;;9.46;79.41;100699.86;2073417;85;21097;-79
2022/10/06 01:29:40;;;;;;;15.25;6.20;;;;;;;9.47;79.50;100702.38;2057676;85;21085;-78
2022/10/06 01:32:42;;;;;;;9.33;6.08;;;;;;;9.54;79.91;100697.33;2079945;85;21141;-79
2022/10/06 01:35:49;;;;;;;11.85;5.50;;;;;;;9.58;79.85;100700.88;2074690;85;21025;-79
2022/10/06 01:38:50;;;;;;;7.30;5.50;;;;;;;9.63;80.15;100695.15;2078720;85;21589;-79
2022/10/06 01:41:51;;;;;;;11.00;5.75;;;;;;;9.68;80.09;100694.69;2079536;85;21515;-79
2022/10/06 01:44:52;;;;;;;11.57;4.85;;;;;;;9.72;80.04;100698.73;2083389;85;20946;-79
2022/10/06 01:47:53;;;;;;;6.60;5.10;;;;;;;9.72;80.01;100700.05;2079600;85;21053;-78
2022/10/06 01:50:54;;;;;;;11.10;6.20;;;;;;;9.70;80.02;100692.23;2074510;85;21021;-79
2022/10/06 01:53:55;;;;;;;11.35;5.55;;;;;;;9.72;80.18;100702.21;2080944;85;21156;-77
2022/10/06 01:56:56;;;;;;;8.80;5.90;;;;;;;9.72;79.95;100696.91;2078863;85;22226;-77
2022/10/06 01:59:58;;;;;;;7.60;5.70;;;;;;;9.72;79.95;100696.91;2076808;85;21124;-80
2022/10/06 02:02:59;;;;;;;10.40;5.60;;;;;;;9.70;80.13;100704.66;2079952;85;21025;-79
2022/10/06 02:06:01;;;;;;;14.75;6.87;;;;;;;9.72;80.11;100702.21;2075528;85;21050;-79
2022/10/06 02:09:02;;;;;;;7.58;5.97;;;;;;;9.67;79.78;100714.23;2075679;85;21458;-79
2022/10/06 02:12:03;;;;;;;13.50;6.28;;;;;;;9.67;79.78;100714.23;2078530;85;21111;-77
2022/10/06 02:15:09;;;;;;;10.65;6.15;;;;;;;9.56;80.09;100714.75;2078314;85;21009;-80
2022/10/06 02:18:10;;;;;;;11.88;6.40;;;;;;;9.43;80.07;100723.03;2080154;85;21073;-79
2022/10/06 02:21:20;;;;;;;8.28;6.10;;;;;;;9.38;80.35;100718.66;2081673;85;21069;-79
2022/10/06 02:24:21;;;;;;;13.32;7.50;;;;;;;9.39;80.66;100720.31;2081391;85;21109;-77
2022/10/06 02:27:22;;;;;;;13.38;7.22;;;;;;;9.38;80.79;100721.30;2081274;85;21052;-79
2022/10/06 02:30:24;;;;;;;11.68;5.97;;;;;;;9.41;81.04;100718.86;2085655;85;21077;-79
2022/10/06 02:33:25;;;;;;;11.05;5.78;;;;;;;9.45;81.16;100726.02;2080647;85;21001;-78
2022/10/06 02:36:29;;;;;;;9.68;6.53;;;;;;;9.40;81.07;100724.66;2081194;85;21038;-79
2022/10/06 02:39:30;;;;;;;11.93;6.75;;;;;;;9.34;80.69;100719.91;2077691;85;21031;-80
2022/10/06 02:42:36;;;;;;;11.08;6.45;;;;;;;9.39;81.45;100719.48;2076686;85;21520;-78
2022/10/06 02:45:41;;;;;;;14.98;6.40;;;;;;;9.46;81.63;100735.63;2079431;85;21140;-78
2022/10/06 02:48:42;;;;;;;10.60;5.10;;;;;;;9.48;81.70;100733.67;2089184;85;21049;-78
2022/10/06 02:51:44;;;;;;;10.65;6.35;;;;;;;9.49;81.46;100733.55;2076600;85;21104;-79
2022/10/06 02:54:45;;;;;;;9.18;5.65;;;;;;;9.52;82.09;100735.91;2082070;85;21604;-79
2022/10/06 02:57:46;;;;;;;9.88;5.65;;;;;;;9.60;82.20;100738.66;2074101;85;21626;-79
2022/10/06 03:00:48;;;;;;;8.60;4.85;;;;;;;9.63;82.09;100742.84;2077094;85;21038;-79
2022/10/06 03:03:50;;;;;;;7.95;4.70;;;;;;;9.60;81.75;100748.41;2083633;85;21134;-79
2022/10/06 03:06:52;;;;;;;9.70;6.08;;;;;;;9.57;81.89;100743.39;2082547;85;21022;-80
2022/10/06 03:09:55;;;;;;;8.68;6.28;;;;;;;9.56;81.81;100743.06;2078815;85;21553;-79
2022/10/06 03:12:56;;;;;;;9.95;5.58;;;;;;;9.58;82.39;100755.69;2080095;85;21034;-78
2022/10/06 03:15:57;;;;;;;18.77;9.50;;;;;;;9.51;81.70;100752.76;2078279;85;21075;-79
2022/10/06 03:19:00;;;;;;;25.30;11.83;;;;;;;9.56;82.90;100752.33;2074466;85;21021;-78
2022/10/06 03:22:05;;;;;;;20.23;8.78;;;;;;;9.52;82.14;100757.09;2085028;85;21543;-79
2022/10/06 03:25:08;;;;;;;9.30;6.00;;;;;;;9.52;82.20;100761.56;2076511;85;21579;-79
2022/10/06 03:28:10;;;;;;;12.73;6.05;;;;;;;9.29;81.95;100765.87;2075200;85;21001;-79
2022/10/06 03:31:12;;;;;;;12.90;6.70;;;;;;;9.29;81.95;100765.87;2090894;84;21057;-80
2022/10/06 03:34:14;;;;;;;17.17;8.43;;;;;;;9.30;82.57;100765.38;2086762;85;21034;-79
2022/10/06 03:37:17;;;;;;;22.27;11.30;;;;;;;9.35;82.97;100766.63;2079092;85;21080;-80
2022/10/06 03:40:20;;;;;;;10.65;6.65;;;;;;;9.41;82.99;100770.02;2081569;85;21081;-79
2022/10/06 03:43:21;;;;;;;11.35;5.90;;;;;;;9.47;82.95;100768.61;2084156;85;21592;-80
2022/10/06 03:46:26;;;;;;;10.10;6.17;;;;;;;9.48;82.74;100780.03;2081677;85;21077;-80
2022/10/06 03:49:30;;;;;;;12.55;5.47;;;;;;;9.51;82.90;100783.72;2101680;84;20994;-79
2022/10/06 03:52:32;;;;;;;6.17;5.25;;;;;;;9.58;83.16;100791.45;2068452;86;20962;-80
2022/10/06 03:55:33;;;;;;;8.23;5.03;;;;;;;9.69;83.59;100778.52;2067181;84;21499;-79
2022/10/06 03:58:41;;;;;;;11.15;4.75;;;;;;;9.83;83.88;100779.37;2067957;84;21065;-78
2022/10/06 04:01:45;;;;;;;7.70;4.35;;;;;;;9.96;84.06;100787.80;2070196;85;20965;-79
2022/10/06 04:04:48;;;;;;;6.05;3.77;;;;;;;10.12;84.23;100787.18;2109938;83;21045;-79
2022/10/06 04:07:49;;;;;;;8.95;4.47;;;;;;;10.26;84.19;100785.36;2102597;83;21026;-76
2022/10/06 04:10:50;;;;;;;8.10;3.83;;;;;;;10.36;84.19;100786.67;2071954;86;21061;-78
2022/10/06 04:13:59;;;;;;;6.55;4.10;;;;;;;10.58;83.93;100799.98;2100959;83;20958;-80
2022/10/06 04:17:01;;;;;;;8.00;4.15;;;;;;;10.58;83.93;100799.98;2088039;83;21057;-81
2022/10/06 04:20:07;;;;;;;9.35;4.40;;;;;;;10.62;83.98;100806.68;2080015;83;21132;-78
2022/10/06 04:23:09;;;;;;;9.85;5.28;;;;;;;10.66;83.81;100802.73;2078898;83;21125;-78
2022/10/06 04:26:16;;;;;;;8.73;4.05;;;;;;;10.67;83.70;100816.83;2093327;83;21058;-79
2022/10/06 04:29:19;;;;;;;6.12;4.12;;;;;;;10.79;83.71;100810.83;2085572;83;20994;-79
2022/10/06 04:32:23;;;;;;;7.53;3.83;;;;;;;10.79;83.71;100810.83;2090226;83;21109;-78
2022/10/06 04:35:26;;;;;;;4.20;3.80;;;;;;;10.84;83.76;100811.19;2084803;83;21049;-78
2022/10/06 04:38:33;;;;;;;6.37;4.50;;;;;;;10.86;83.58;100810.55;2087400;83;21046;-80
2022/10/06 04:41:37;;;;;;;8.83;3.98;;;;;;;10.89;83.67;100812.90;2092077;83;21053;-79
2022/10/06 04:44:38;;;;;;;7.22;4.00;;;;;;;10.93;83.58;100814.28;2091403;83;21002;-79
2022/10/06 04:47:40;;;;;;;6.22;4.03;;;;;;;10.96;83.55;100823.27;2090057;83;21061;-80
2022/10/06 04:50:41;;;;;;;7.67;3.50;;;;;;;10.99;83.56;100825.11;2094846;83;21048;-78
2022/10/06 04:53:45;;;;;;;6.25;3.95;;;;;;;11.05;83.50;100826.33;2085561;83;21128;-78
2022/10/06 04:56:47;;;;;;;4.53;4.10;;;;;;;11.07;83.44;100831.50;2091195;83;21504;-78
2022/10/06 05:03:09;;;;;;;9.80;4.03;;;;;;;11.10;83.30;100838.66;2095066;83;21124;-80
2022/10/06 05:06:19;;;;;;;6.22;4.33;;;;;;;11.11;83.19;100846.96;2087609;83;21093;-80
2022/10/06 05:09:20;;;;;;;8.87;4.57;;;;;;;11.10;83.18;100845.80;2091376;83;21481;-80
2022/10/06 05:12:23;;;;;;;5.70;4.55;;;;;;;11.11;83.14;100856.75;2088082;83;21006;-81
2022/10/06 05:15:27;;;;;;;7.97;4.00;;;;;;;11.10;83.07;100862.56;2087682;83;21042;-81
2022/10/06 05:18:30;;;;;;;9.00;3.70;;;;;;;11.12;83.05;100871.69;2085703;83;21062;-80
2022/10/06 05:21:32;;;;;;;8.10;3.98;;;;;;;11.15;83.09;100872.72;2070610;83;21117;-80
2022/10/06 05:24:34;;;;;;;8.95;4.03;;;;;;;11.27;83.25;100876.00;2085855;83;21143;-81
2022/10/06 05:27:35;;;;;;;6.47;3.67;;;;;;;11.49;83.25;100887.48;2088428;83;21495;-81
2022/10/06 05:30:37;;;;;;;8.80;3.85;;;;;;;11.77;83.24;100884.67;2077366;83;21112;-81
2022/10/06 05:33:39;;;;;;;4.30;3.52;;;;;;;11.96;82.86;100892.98;2092700;83;21592;-80
2022/10/06 05:36:40;;;;;;;5.67;3.60;;;;;;;12.16;82.78;100895.75;2081306;83;21081;-80
2022/10/06 05:39:42;;;;;;;4.12;3.35;;;;;;;12.51;82.57;100893.43;2088389;83;21053;-80
2022/10/06 05:42:43;;;;;;;6.50;3.30;;;;;;;12.85;82.25;100896.53;2083468;83;21105;-81
2022/10/06 05:45:54;;;;;;;4.92;3.47;;;;;;;13.05;81.46;100901.07;2090352;83;21016;-81
2022/10/06 05:48:59;;;;;;;4.70;3.30;;;;;;;12.97;80.84;100905.88;2094808;83;21044;-79
2022/10/06 05:52:02;;;;;;;9.78;4.55;;;;;;;13.15;81.04;100904.91;2084203;83;21003;-81
2022/10/06 05:55:06;;;;;;;6.83;3.60;;;;;;;13.55;81.15;100916.66;2088662;83;21056;-80
2022/10/06 05:58:07;;;;;;;9.45;3.80;;;;;;;14.00;81.01;100919.28;2049546;83;21061;-80
2022/10/06 06:01:20;;;;;;;11.33;4.10;;;;;;;14.07;79.84;100916.25;2095568;83;21045;-81
2022/10/06 06:04:22;;;;;;;4.25;3.33;;;;;;;14.00;79.29;100919.28;2089465;83;20998;-79
2022/10/06 06:07:25;;;;;;;9.58;3.80;;;;;;;13.90;79.06;100936.28;2097563;83;21093;-80
2022/10/06 06:10:26;;;;;;;4.95;3.35;;;;;;;13.81;78.81;100939.97;2086230;83;21006;-79
2022/10/06 06:13:27;;;;;;;5.67;3.65;;;;;;;13.77;78.66;100947.98;2089751;83;21112;-81
2022/10/06 06:16:34;;;;;;;6.75;4.50;;;;;;;13.80;78.74;100938.82;2093891;83;21014;-79
2022/10/06 06:19:35;;;;;;;13.03;5.97;;;;;;;14.02;78.82;100937.27;2094952;83;21079;-79
2022/10/06 06:22:36;;;;;;;11.10;6.62;;;;;;;14.50;78.83;100946.16;2094601;83;21338;-79
2022/10/06 06:25:43;;;;;;;8.15;4.62;;;;;;;15.03;78.94;100955.30;2070812;86;21094;-77
2022/10/06 06:28:46;;;;;;;6.75;4.15;;;;;;;15.55;78.24;100963.19;2072462;85;21030;-80
2022/10/06 06:31:49;;;;;;;7.47;3.80;;;;;;;15.88;77.79;100961.08;2082027;85;21068;-78
2022/10/06 06:34:51;;;;;;;19.82;6.80;;;;;;;16.19;77.04;100956.96;2071538;85;20977;-78
2022/10/06 06:37:53;;;;;;;10.32;4.78;;;;;;;16.54;76.42;100960.74;2079128;85;21608;-79
2022/10/06 06:40:57;;;;;;;10.88;4.67;;;;;;;16.99;76.17;100971.45;2051258;85;21041;-79
2022/10/06 06:44:01;;;;;;;6.67;4.03;;;;;;;17.51;76.00;100975.71;2059045;85;21045;-80
2022/10/06 06:47:04;;;;;;;14.20;5.35;;;;;;;18.03;74.99;100981.80;2074539;85;21184;-79
2022/10/06 06:50:09;;;;;;;6.87;5.28;;;;;;;18.49;74.11;100987.47;2076148;85;20981;-79
2022/10/06 06:53:09;;;;;;;10.32;4.12;;;;;;;18.94;73.03;100987.11;2078535;85;21492;-79
2022/10/06 06:56:12;;;;;;;10.08;4.45;;;;;;;19.18;71.38;100996.53;2077139;85;21132;-79
2022/10/06 06:59:13;;;;;;;17.40;6.03;;;;;;;19.41;71.38;100997.00;2070476;85;21469;-79
2022/10/06 07:02:16;;;;;;;11.40;4.70;;;;;;;19.62;70.61;101007.27;2076945;85;21122;-79
2022/10/06 07:05:22;;;;;;;13.68;4.62;;;;;;;19.89;69.60;101002.27;2071966;85;21096;-79
2022/10/06 07:08:23;;;;;;;8.58;4.40;;;;;;;20.22;69.24;101006.00;2075748;85;20982;-79
2022/10/06 07:11:30;;;;;;;5.92;3.35;;;;;;;20.36;67.54;101004.95;2073017;85;21075;-79
2022/10/06 07:14:32;;;;;;;7.92;3.30;;;;;;;20.60;67.55;101006.16;2059457;85;21074;-80
2022/10/06 07:27:43;;;;;;;5.83;3.55;;;;;;;21.32;64.54;101020.42;2085608;85;21075;-79
2022/10/06 07:30:46;;;;;;;10.58;3.80;;;;;;;21.52;63.64;101025.73;2084586;85;21506;-79
2022/10/06 07:33:50;;;;;;;4.83;3.87;;;;;;;21.67;63.65;101026.25;2078149;85;21011;-79
2022/10/06 07:36:52;;;;;;;5.45;3.72;;;;;;;21.79;62.42;101019.61;2083388;84;21026;-79
2022/10/06 07:39:55;;;;;;;5.42;3.15;;;;;;;21.79;61.59;101025.55;2082898;85;21095;-79
2022/10/06 07:42:56;;;;;;;4.17;3.42;;;;;;;21.42;61.61;101030.77;2084010;85;21612;-78
2022/10/06 07:45:59;;;;;;;4.60;3.02;;;;;;;21.02;61.00;101023.66;2078267;85;21058;-78
2022/10/06 07:49:05;;;;;;;6.40;3.30;;;;;;;20.55;61.32;101039.16;2080159;84;21056;-78
2022/10/06 07:52:07;;;;;;;7.60;3.55;;;;;;;20.22;61.42;101045.08;2047878;84;21053;-79
2022/10/06 07:55:08;;;;;;;15.60;4.17;;;;;;;19.88;61.62;101048.27;2066596;86;22400;-81
2022/10/06 07:58:22;;;;;;;12.58;4.80;;;;;;;19.62;61.81;101055.20;2063819;85;21613;-81
2022/10/06 08:01:25;;;;;;;11.75;4.40;;;;;;;19.51;62.27;101053.63;2066106;83;21667;-78
2022/10/06 08:04:27;;;;;;;14.33;5.28;;;;;;;19.36;62.47;101060.53;2082657;84;21062;-78
2022/10/06 08:07:28;;;;;;;11.57;4.65;;;;;;;19.35;62.57;101064.27;2061328;84;21044;-81
2022/10/06 08:10:28;;;;;;;10.80;5.05;;;;;;;19.34;63.01;101072.00;2074720;84;20982;-78
2022/10/06 08:13:33;;;;;;;8.88;4.22;;;;;;;19.30;62.20;101072.09;2104490;83;21101;-78
2022/10/06 08:16:34;;;;;;;10.88;3.90;;;;;;;19.18;62.91;101074.02;2102863;84;21102;-77
2022/10/06 08:19:35;;;;;;;10.93;5.37;;;;;;;19.15;62.86;101078.45;2097813;83;21007;-78
2022/10/06 08:22:38;;;;;;;16.80;5.10;;;;;;;19.24;63.06;101083.15;2101570;84;21073;-78
2022/10/06 08:25:44;;;;;;;10.20;3.40;;;;;;;19.35;63.48;101092.52;2056292;84;21061;-77
2022/10/06 08:28:46;;;;;;;9.18;3.42;;;;;;;19.53;63.13;101087.39;2066141;84;21406;-79
2022/10/06 08:31:47;;;;;;;11.65;3.70;;;;;;;19.53;62.87;101094.12;2072460;84;21109;-83
2022/10/06 08:34:49;;;;;;;9.28;3.92;;;;;;;19.47;63.24;101098.45;2114644;83;20982;-77
2022/10/06 08:37:52;;;;;;;6.03;3.58;;;;;;;19.47;63.44;101103.00;2096428;83;21012;-77
2022/10/06 08:40:53;;;;;;;7.12;2.98;;;;;;;19.49;63.65;101111.20;2090817;84;20990;-78
2022/10/06 08:44:19;;;;;;;7.87;2.95;;;;;;;19.49;63.64;101116.58;2071443;84;21524;-78
2022/10/06 08:47:21;;;;;;;5.83;3.02;;;;;;;19.48;63.24;101121.66;2073702;85;21049;-77
2022/10/06 08:50:26;;;;;;;5.90;3.08;;;;;;;19.40;63.29;101133.08;2082211;85;21027;-78
2022/10/06 08:53:52;;;;;;;9.78;2.75;;;;;;;19.21;63.18;101131.45;2068138;85;21501;-78
2022/10/06 08:57:16;;;;;;;8.80;2.60;;;;;;;19.12;63.52;101143.41;2074827;85;21017;-77
2022/10/06 09:00:28;;;;;;;5.40;2.70;;;;;;;19.05;63.59;101143.88;2049440;84;21567;-77
2022/10/06 09:03:39;;;;;;;7.72;3.12;;;;;;;18.84;63.73;101150.66;2076378;85;20967;-78
2022/10/06 09:07:08;;;;;;;4.87;2.80;;;;;;;18.66;63.99;101157.32;2039626;85;21489;-77
2022/10/06 09:10:31;;;;;;;6.37;2.92;;;;;;;18.52;64.15;101168.98;2054502;85;21108;-77
2022/10/06 09:13:56;;;;;;;5.65;2.22;;;;;;;18.41;64.63;101164.13;2057256;85;21087;-76
2022/10/06 09:17:10;;;;;;;6.58;3.22;;;;;;;18.26;64.83;101167.72;2096909;83;21085;-77
2022/10/06 09:20:37;;;;;;;7.87;3.00;;;;;;;18.06;65.06;101177.44;2061891;84;21042;-78
2022/10/06 09:23:48;;;;;;;10.03;2.92;;;;;;;18.02;65.75;101178.34;2040553;86;21464;-77
2022/10/06 09:26:58;;;;;;;;;;;;;;;18.03;65.85;101167.08;2043255;86;21435;-78
2022/10/06 09:30:07;;;;;;;4.70;2.75;;;;;;;18.06;66.04;101178.27;2064729;85;20180;-78
2022/10/06 09:33:27;;;;;;;4.20;2.85;;;;;;;18.00;66.14;101191.11;2092508;84;21715;-77
2022/10/06 09:36:45;;;;;;;6.17;2.90;;;;;;;18.03;66.32;101190.73;2074727;84;21042;-78
2022/10/06 09:39:51;;;;;;;6.33;2.80;;;;;;;18.17;66.68;101199.77;2067279;84;21019;-77
2022/10/06 09:42:59;;;;;;;7.72;3.15;;;;;;;18.60;66.60;101210.52;2061506;85;21061;-77
2022/10/06 09:46:35;;;;;;;4.97;3.00;;;;;;;19.03;66.12;101200.58;2070635;83;21030;-78
2022/10/06 09:49:36;;;;;;;5.62;3.15;;;;;;;19.36;65.57;101204.49;2095686;84;21641;-77
2022/10/06 09:52:43;;;;;;;3.92;2.80;;;;;;;19.80;65.00;101215.42;2087558;84;21509;-78
2022/10/06 09:55:50;;;;;;;4.25;2.92;;;;;;;19.79;63.88;101219.13;2091408;84;21093;-78
2022/10/06 09:58:58;;;;;;;4.40;2.50;;;;;;;19.86;63.92;101219.99;2096330;84;21069;-78
2022/10/06 10:02:00;;;;;;;5.47;2.52;;;;;;;19.98;63.81;101223.76;2113741;83;21557;-78
2022/10/06 10:05:19;;;;;;;6.22;2.80;;;;;;;20.17;63.79;101232.12;2082106;84;21098;-78
2022/10/06 10:08:29;;;;;;;5.05;3.20;;;;;;;19.93;62.91;101234.30;2098930;84;21014;-78
2022/10/06 10:14:55;;;;;;;6.90;2.87;;;;;;;19.08;63.33;101248.38;2077608;85;21512;-78
2022/10/06 10:18:07;;;;;;;2.83;2.37;;;;;;;18.70;63.60;101262.11;2078243;85;21055;-78
2022/10/06 10:21:09;;;;;;;4.45;2.45;;;;;;;18.48;64.06;101265.81;2066330;85;21532;-78
2022/10/06 10:24:16;;;;;;;5.37;2.67;;;;;;;18.28;64.24;101266.94;2067424;84;21065;-78
2022/10/06 10:27:30;;;;;;;5.15;2.42;;;;;;;18.10;64.52;101269.53;2093181;84;21077;-78
2022/10/06 10:30:39;;;;;;;3.33;2.02;;;;;;;17.98;64.37;101275.56;2054867;86;21026;-78
2022/10/06 10:34:01;;;;;;;4.72;2.80;;;;;;;17.84;64.60;101269.19;2093937;83;21069;-78
2022/10/06 10:37:11;;;;;;;5.35;2.70;;;;;;;17.71;64.62;101285.93;2025390;86;21489;-77
2022/10/06 10:40:17;;;;;;;6.75;3.33;;;;;;;17.66;64.90;101278.94;2066761;85;21074;-79
2022/10/06 10:43:39;;;;;;;4.25;2.15;;;;;;;17.59;65.12;101281.50;2077179;85;20986;-78
2022/10/06 10:46:43;;;;;;;;;;;;;;;17.51;64.75;101295.00;2081997;85;21030;-78
2022/10/06 10:49:50;;;;;;;2.83;2.02;;;;;;;17.42;64.97;101290.23;2079910;85;20247;-78
2022/10/06 10:52:58;;;;;;;7.95;2.40;;;;;;;17.41;65.22;101298.48;2076452;85;21089;-77
2022/10/06 10:56:02;;;;;;;6.42;2.83;;;;;;;17.41;65.37;101298.48;2076240;85;21017;-78
2022/10/06 10:59:21;;;;;;;3.85;2.87;;;;;;;17.34;65.35;101299.70;2081648;84;21528;-78
2022/10/06 11:02:23;;;;;;;4.58;3.45;;;;;;;17.25;65.44;101305.66;2062126;85;21067;-78
2022/10/06 11:05:54;;;;;;;5.70;3.40;;;;;;;17.21;65.79;101303.53;2077876;84;21017;-78
2022/10/06 11:09:10;;;;;;;6.10;3.40;;;;;;;17.17;65.92;101312.94;2077568;84;21093;-78
2022/10/06 11:12:28;;;;;;;5.03;2.87;;;;;;;17.13;66.21;101318.36;2079858;84;21563;-78
2022/10/06 11:16:00;;;;;;;2.27;1.90;;;;;;;17.07;66.42;101315.06;2096461;83;21085;-78
2022/10/06 11:19:28;;;;;;;5.55;2.58;;;;;;;16.95;66.11;101326.69;2068046;85;21026;-78
2022/10/06 11:22:51;;;;;;;8.08;3.80;;;;;;;16.83;65.81;101326.79;2051857;85;21401;-78
2022/10/06 11:26:18;;;;;;;4.03;2.50;;;;;;;16.73;65.66;101331.03;2073331;85;20991;-77
2022/10/06 11:30:00;;;;;;;8.08;3.67;;;;;;;16.68;65.82;101340.09;2072546;84;21048;-78
2022/10/06 11:33:27;;;;;;;6.22;3.55;;;;;;;16.70;66.04;101340.77;2058157;85;21437;-77
2022/10/06 11:37:03;;;;;;;8.25;2.77;;;;;;;16.75;65.87;101340.55;2071630;85;21046;-77
2022/10/06 11:41:00;;;;;;;4.37;2.52;;;;;;;16.74;65.75;101352.27;2070794;85;21504;-77
2022/10/06 11:44:33;;;;;;;2.58;1.92;;;;;;;16.75;65.93;101350.42;2070547;85;20954;-78
2022/10/06 11:48:02;;;;;;;4.67;1.70;;;;;;;16.81;65.49;101345.75;2072443;85;21060;-78
2022/10/06 11:51:25;;;;;;;2.98;1.47;;;;;;;17.30;65.68;101339.16;2046817;84;21010;-78
2022/10/06 11:54:52;;;;;;;3.30;1.40;;;;;;;17.88;65.67;101350.52;2074203;85;21081;-78
2022/10/06 11:58:08;;;;;;;3.22;1.77;;;;;;;18.10;63.90;101347.91;2072676;84;21022;-78
2022/10/06 12:01:15;;;;;;;5.67;1.60;;;;;;;18.21;63.57;101354.14;2072703;85;21061;-77
2022/10/06 12:04:17;;;;;;;3.12;1.77;;;;;;;18.37;63.48;101358.49;2065696;85;21588;-77
2022/10/06 12:07:18;;;;;;;3.02;1.22;;;;;;;18.47;63.43;101360.39;2072441;85;21077;-77
2022/10/06 12:10:32;;;;;;;5.47;1.20;;;;;;;18.49;62.46;101357.49;2073635;85;21635;-77
2022/10/06 12:13:44;;;;;;;2.50;1.17;;;;;;;18.28;61.40;101363.14;2074839;84;21084;-77
2022/10/06 12:16:53;;;;;;;1.67;1.00;;;;;;;18.18;60.50;101355.05;2070557;85;21082;-77
2022/10/06 12:20:33;;;;;;;1.52;0.90;;;;;;;18.09;60.60;101357.82;2073497;84;21092;-78
2022/10/06 12:24:04;;;;;;;4.00;1.15;;;;;;;17.97;60.17;101358.48;2065005;85;21089;-77
2022/10/06 12:27:45;;;;;;;3.80;1.10;;;;;;;17.86;60.45;101357.92;2072739;85;20978;-77
2022/10/06 12:30:55;;;;;;;3.83;2.60;;;;;;;17.84;60.63;101365.83;2072866;85;21081;-79
2022/10/06 12:33:56;;;;;;;2.83;1.50;;;;;;;17.73;59.50;101369.77;2069006;84;21077;-79
2022/10/06 12:37:37;;;;;;;3.55;1.47;;;;;;;17.67;59.49;101375.87;2077646;84;21300;-78
2022/10/06 12:40:54;;;;;;;2.30;0.98;;;;;;;17.70;59.11;101372.81;2071137;85;21126;-77
2022/10/06 12:43:56;;;;;;;3.50;1.12;;;;;;;17.71;58.87;101386.58;2055695;85;21031;-77
2022/10/06 12:47:02;;;;;;;1.10;0.98;;;;;;;17.77;58.96;101387.19;2073366;85;21041;-78
2022/10/06 12:50:18;;;;;;;1.67;1.15;;;;;;;17.72;58.51;101390.09;2071554;85;21044;-77
2022/10/06 12:53:27;;;;;;;6.37;1.42;;;;;;;17.64;58.71;101393.17;2077758;85;21075;-77
2022/10/06 12:56:33;;;;;;;1.35;1.22;;;;;;;17.60;58.63;101396.42;2062990;85;21069;-77
2022/10/06 12:59:37;;;;;;;1.20;0.88;;;;;;;17.61;59.08;101395.39;2073699;85;21057;-76
2022/10/06 13:02:37;;;;;;;1.95;1.12;;;;;;;17.64;58.91;101403.08;2048594;85;21034;-76
2022/10/06 13:05:39;;;;;;;2.35;1.30;;;;;;;17.57;58.11;101398.09;2070770;84;21498;-76
2022/10/06 13:12:30;;;;;;;3.25;1.25;;;;;;;17.46;58.26;101406.92;1882819;93;21135;-86
2022/10/06 13:15:34;;;;;;;4.50;0.90;;;;;;;17.43;58.87;101409.97;1882505;93;21054;-84
2022/10/06 13:18:35;;;;;;;4.08;1.37;;;;;;;17.42;58.70;101413.65;1885019;93;21561;-83
2022/10/06 13:21:37;;;;;;;3.58;1.20;;;;;;;17.39;58.64;101411.33;1881771;93;21063;-85
2022/10/06 13:24:38;;;;;;;1.62;0.98;;;;;;;17.39;58.31;101415.86;1866435;93;21633;-84
2022/10/06 13:27:40;;;;;;;3.52;1.20;;;;;;;17.39;58.19;101414.02;1881001;93;21553;-83
2022/10/06 13:30:41;;;;;;;1.98;1.10;;;;;;;17.51;58.41;101417.09;1883640;93;21062;-82
2022/10/06 13:33:45;;;;;;;5.15;1.75;;;;;;;17.55;58.39;101422.45;1880309;93;21057;-84
2022/10/06 13:36:50;;;;;;;2.70;1.30;;;;;;;17.66;58.39;101422.01;1958235;88;21031;-83
2022/10/06 13:39:51;;;;;;;2.30;1.50;;;;;;;17.77;57.52;101420.74;1997042;87;20985;-84
2022/10/06 13:42:54;;;;;;;1.92;1.30;;;;;;;17.79;57.37;101414.69;1982278;88;21038;-82
2022/10/06 13:45:56;;;;;;;4.90;1.30;;;;;;;17.78;57.54;101418.41;1980103;88;21058;-82
2022/10/06 13:49:11;;;;;;;5.17;1.60;;;;;;;17.78;57.67;101415.72;1981388;88;21069;-82
2022/10/06 13:52:33;;;;;;;2.45;1.57;;;;;;;17.78;57.65;101415.72;1982962;88;21016;-84
2022/10/06 13:55:35;;;;;;;1.95;1.20;;;;;;;17.78;57.95;101426.45;1984675;88;21061;-84
2022/10/06 13:58:37;;;;;;;2.17;1.02;;;;;;;17.84;57.91;101420.87;1966603;88;21969;-81
2022/10/06 14:01:38;;;;;;;2.47;1.42;;;;;;;17.80;57.72;101428.98;1982491;88;21036;-84
2022/10/06 14:04:40;;;;;;;3.27;1.15;;;;;;;17.72;57.54;101427.16;1988144;88;21081;-81
2022/10/06 14:07:46;;;;;;;3.17;1.52;;;;;;;17.66;57.81;101432.75;1984322;88;21039;-83
2022/10/06 14:10:52;;;;;;;2.12;1.30;;;;;;;17.65;57.76;101431.57;1986466;88;21127;-79
2022/10/06 14:13:58;;;;;;;3.47;1.82;;;;;;;17.61;57.71;101428.94;1980408;88;21050;-79
2022/10/06 14:16:59;;;;;;;3.40;2.20;;;;;;;17.57;57.72;101435.66;1980968;88;21093;-81
2022/10/06 14:20:00;;;;;;;4.62;3.20;;;;;;;17.54;58.02;101441.39;1983009;88;21614;-84
2022/10/06 14:23:21;;;;;;;8.40;4.47;;;;;;;17.54;57.81;101438.71;1980628;88;21584;-80
2022/10/06 14:26:27;;;;;;;4.75;3.60;;;;;;;17.48;58.02;101441.13;1983376;88;21130;-81
2022/10/06 14:29:30;;;;;;;4.50;3.08;;;;;;;17.48;58.18;101438.44;1983361;88;21089;-81
2022/10/06 14:32:31;;;;;;;6.92;3.05;;;;;;;17.39;58.44;101438.16;2032260;86;20983;-82
2022/10/06 14:35:32;;;;;;;2.72;1.52;;;;;;;17.33;58.65;101440.22;2031050;85;21067;-82
2022/10/06 14:38:33;;;;;;;4.17;1.60;;;;;;;17.33;58.91;101446.09;2028295;86;21058;-81
2022/10/06 14:41:34;;;;;;;6.58;2.33;;;;;;;17.30;58.86;101449.97;2035008;86;21555;-85
2022/10/06 14:44:37;;;;;;;2.52;1.52;;;;;;;17.34;59.11;101449.92;2031233;86;21023;-84
2022/10/06 14:47:38;;;;;;;7.30;2.52;;;;;;;17.35;59.07;101455.64;2031329;86;21102;-83
2022/10/06 14:50:42;;;;;;;4.80;2.22;;;;;;;17.27;59.27;101450.84;2033192;86;21083;-83